Time;durP1;ratioP1;P1;durP2;ratioP2;P2;SDS_P1;SDS_P2;PMS_P1;PMS_P2;Temp;Humidity;BMP_temperature;BMP_pressure;BME280_temperature;BME280_humidity;BME280_pressure;Samples;Min_cycle;Max_cycle;Signal;HPM_P1;HPM_P2
2023/04/05 00:01:29;;;;;;;;;;;;;;;20.39;40.96;102001.13;4969793;28;1703;-67
2023/04/05 00:03:56;;;;;;;;;;;;;;;20.40;40.93;101997.59;4969288;28;2722;-67
2023/04/05 00:06:27;;;;;;;;;;;;;;;20.40;40.87;101988.97;4969231;28;1859;-67
2023/04/05 00:08:57;;;;;;;;;;;;;;;20.38;40.94;101988.84;4967324;28;1651;-67
2023/04/05 00:11:24;;;;;;;;;;;;;;;20.40;41.04;101993.97;4966960;28;2198;-66
2023/04/05 00:13:50;;;;;;;;;;;;;;;20.37;40.99;101990.22;4969245;28;1865;-67
2023/04/05 00:16:16;;;;;;;;;;;;;;;20.37;41.05;101981.59;4968019;28;2653;-67
2023/04/05 00:18:50;;;;;;;;;;;;;;;20.36;41.09;101991.59;4968354;28;1786;-66
2023/04/05 00:21:17;;;;;;;;;;;;;;;20.35;41.12;101984.34;4962774;28;1859;-67
2023/04/05 00:23:43;;;;;;;;;;;;;;;20.35;40.94;101980.72;4968972;28;1716;-66
2023/04/05 00:26:10;;;;;;;;;;;;;;;20.34;41.16;101977.09;4968828;28;2623;-66
2023/04/05 00:28:39;;;;;;;;;;;;;;;20.35;41.05;101983.59;4964406;28;1819;-67
2023/04/05 00:31:06;;;;;;;;;;;;;;;20.34;40.98;101971.34;4968716;28;1963;-67
2023/04/05 00:33:32;;;;;;;;;;;;;;;20.35;41.13;101972.09;4968251;28;1596;-66
2023/04/05 00:36:08;;;;;;;;;;;;;;;20.36;41.04;101980.06;4968468;28;2347;-67
2023/04/05 00:38:35;;;;;;;;;;;;;;;20.37;40.90;101975.84;4968152;28;1778;-66
2023/04/05 00:41:01;;;;;;;;;;;;;;;20.37;41.08;101978.72;4966426;28;2369;-67
2023/04/05 00:43:28;;;;;;;;;;;;;;;20.36;41.01;101971.44;4966911;28;2639;-67
2023/04/05 00:45:55;;;;;;;;;;;;;;;20.37;41.12;101972.97;4967847;28;1850;-67
2023/04/05 00:48:21;;;;;;;;;;;;;;;20.35;41.15;101972.81;4953962;28;2235;-67
2023/04/05 00:50:48;;;;;;;;;;;;;;;20.35;41.20;101964.19;4950950;28;2544;-67
2023/04/05 00:53:17;;;;;;;;;;;;;;;20.35;41.29;101972.81;4967733;28;2627;-66
2023/04/05 00:55:44;;;;;;;;;;;;;;;20.34;41.21;101977.09;4967753;28;1664;-67
2023/04/05 00:58:10;;;;;;;;;;;;;;;20.32;41.02;101974.09;4967269;28;1743;-67
2023/04/05 01:00:37;;;;;;;;;;;;;;;20.32;41.16;101968.31;4967760;28;2453;-67
2023/04/05 01:03:04;;;;;;;;;;;;;;;20.32;41.24;101971.22;4965681;28;2679;-67
2023/04/05 01:05:43;;;;;;;;;;;;;;;20.32;41.10;101965.44;4949641;28;1769;-67
2023/04/05 01:08:27;;;;;;;;;;;;;;;20.32;41.16;101961.81;4949130;28;2534;-67
2023/04/05 01:10:54;;;;;;;;;;;;;;;20.34;41.09;101961.94;4968754;28;2632;-67
2023/04/05 01:13:21;;;;;;;;;;;;;;;20.34;41.03;101959.84;4966705;28;2959;-67
2023/04/05 01:15:47;;;;;;;;;;;;;;;20.35;41.22;101960.56;4970853;28;2668;-67
2023/04/05 01:18:14;;;;;;;;;;;;;;;20.34;41.15;101959.84;4968175;28;2576;-67
2023/04/05 01:20:51;;;;;;;;;;;;;;;20.35;41.24;101960.56;4955344;28;1589;-67
2023/04/05 01:23:18;;;;;;;;;;;;;;;20.35;40.97;101967.06;4953736;28;1587;-67
2023/04/05 01:25:58;;;;;;;;;;;;;;;20.35;41.14;101961.31;4948870;28;1811;-67
2023/04/05 01:28:34;;;;;;;;;;;;;;;20.34;41.08;101959.84;4966694;28;2799;-67
2023/04/05 01:31:05;;;;;;;;;;;;;;;20.33;41.22;101964.06;4965346;28;1985;-67
2023/04/05 01:33:31;;;;;;;;;;;;;;;20.32;41.16;101956.81;4971683;28;1635;-67
2023/04/05 01:36:18;;;;;;;;;;;;;;;20.31;41.17;101961.06;4972349;28;2230;-66
2023/04/05 01:38:45;;;;;;;;;;;;;;;20.31;41.17;101966.81;4964608;28;1664;-67
2023/04/05 01:41:11;;;;;;;;;;;;;;;20.31;41.26;101961.06;4969970;28;2560;-66
2023/04/05 01:43:37;;;;;;;;;;;;;;;20.30;41.31;101957.44;4959676;28;1712;-66
2023/04/05 01:46:04;;;;;;;;;;;;;;;20.30;41.11;101951.69;4970309;28;2348;-66
2023/04/05 01:48:31;;;;;;;;;;;;;;;20.32;41.27;101956.03;4970563;28;2733;-67
2023/04/05 01:50:58;;;;;;;;;;;;;;;20.31;41.07;101955.31;4948786;28;1915;-67
2023/04/05 01:53:25;;;;;;;;;;;;;;;20.33;41.21;101951.81;4968879;28;2350;-67
2023/04/05 01:55:51;;;;;;;;;;;;;;;20.32;41.12;101948.19;4970613;28;1846;-67
2023/04/05 01:58:18;;;;;;;;;;;;;;;20.32;41.13;101951.06;4951290;28;2795;-67
2023/04/05 02:00:45;;;;;;;;;;;;;;;20.33;41.06;101946.06;4970508;28;1818;-66
2023/04/05 02:03:11;;;;;;;;;;;;;;;20.31;41.12;101938.03;4970655;28;1869;-66
2023/04/05 02:05:38;;;;;;;;;;;;;;;20.31;41.26;101932.28;4969886;28;1805;-66
2023/04/05 02:08:04;;;;;;;;;;;;;;;20.29;41.12;101943.66;4970183;28;1640;-67
2023/04/05 02:10:30;;;;;;;;;;;;;;;20.28;41.12;101945.06;4969836;28;2424;-67
2023/04/05 02:12:57;;;;;;;;;;;;;;;20.29;41.16;101937.91;4952169;28;2527;-67
2023/04/05 02:19:21;;;;;;;;;;;;;;;20.29;41.32;101946.53;4953386;28;1736;-66
2023/04/05 02:21:49;;;;;;;;;;;;;;;20.28;41.36;101939.28;4926219;28;2670;-67
2023/04/05 02:24:18;;;;;;;;;;;;;;;20.29;41.31;101946.53;4963364;28;1666;-67
2023/04/05 02:26:44;;;;;;;;;;;;;;;20.29;41.22;101943.66;4970663;28;1832;-66
2023/04/05 02:29:10;;;;;;;;;;;;;;;20.31;41.16;101938.03;4971007;28;1689;-67
2023/04/05 02:31:37;;;;;;;;;;;;;;;20.30;41.04;101936.56;4970255;28;2626;-67
2023/04/05 02:34:04;;;;;;;;;;;;;;;20.31;41.15;101935.16;4970303;28;2638;-67
2023/04/05 02:36:31;;;;;;;;;;;;;;;20.30;41.13;101930.81;4970771;28;1868;-67
2023/04/05 02:38:57;;;;;;;;;;;;;;;20.30;41.18;101934.41;4968567;28;2671;-66
2023/04/05 02:41:24;;;;;;;;;;;;;;;20.31;41.21;101938.03;4970871;28;1800;-67
2023/04/05 02:43:51;;;;;;;;;;;;;;;20.29;41.23;101935.03;4970362;28;2724;-67
2023/04/05 02:46:17;;;;;;;;;;;;;;;20.29;41.20;101929.28;4970851;28;2587;-67
2023/04/05 02:48:44;;;;;;;;;;;;;;;20.29;41.24;101917.78;4950024;28;1853;-67
2023/04/05 02:51:13;;;;;;;;;;;;;;;20.28;40.99;101922.78;4969821;28;1903;-67
2023/04/05 02:53:40;;;;;;;;;;;;;;;20.31;41.14;101920.78;4955804;28;2034;-66
2023/04/05 02:56:12;;;;;;;;;;;;;;;20.30;41.18;101931.53;4957230;28;2334;-67
2023/04/05 02:58:42;;;;;;;;;;;;;;;20.31;41.12;101920.78;4968746;28;1864;-67
2023/04/05 03:01:09;;;;;;;;;;;;;;;20.32;41.06;101913.66;4968841;28;1754;-67
2023/04/05 03:03:36;;;;;;;;;;;;;;;20.33;41.03;101920.16;4949018;28;1782;-67
2023/04/05 03:06:09;;;;;;;;;;;;;;;20.35;41.03;101921.03;4969874;28;2627;-67
2023/04/05 03:08:47;;;;;;;;;;;;;;;20.34;41.28;101924.53;4959583;28;1775;-67
2023/04/05 03:11:18;;;;;;;;;;;;;;;20.34;41.10;101921.66;4951171;28;2695;-67
2023/04/05 03:13:49;;;;;;;;;;;;;;;20.35;41.22;101920.31;4950553;28;1809;-68
2023/04/05 03:16:34;;;;;;;;;;;;;;;20.34;41.16;101913.81;4952255;28;2577;-68
2023/04/05 03:19:08;;;;;;;;;;;;;;;20.35;41.24;101915.28;4953288;28;1679;-67
2023/04/05 03:21:39;;;;;;;;;;;;;;;20.34;41.24;101919.56;4950482;28;1881;-67
2023/04/05 03:24:17;;;;;;;;;;;;;;;20.33;41.22;101912.28;4951159;28;1846;-67
2023/04/05 03:26:44;;;;;;;;;;;;;;;20.34;41.32;101905.16;4969652;28;2425;-67
2023/04/05 03:29:11;;;;;;;;;;;;;;;20.32;41.16;101910.78;4956095;28;1936;-68
2023/04/05 03:31:38;;;;;;;;;;;;;;;20.31;41.31;101903.53;4967196;28;1924;-67
2023/04/05 03:34:07;;;;;;;;;;;;;;;20.31;41.14;101900.66;4966681;28;2353;-67
2023/04/05 03:36:41;;;;;;;;;;;;;;;20.30;41.09;101896.28;4966442;28;2694;-67
2023/04/05 03:39:19;;;;;;;;;;;;;;;20.31;41.21;101903.53;4968155;28;1825;-67
2023/04/05 03:41:46;;;;;;;;;;;;;;;20.32;41.21;101896.41;4951788;28;1745;-67
2023/04/05 03:44:13;;;;;;;;;;;;;;;20.32;41.16;101887.00;4969341;28;1816;-67
2023/04/05 03:46:39;;;;;;;;;;;;;;;20.33;41.23;101895.03;4967930;28;2634;-67
2023/04/05 03:49:06;;;;;;;;;;;;;;;20.34;41.13;101884.25;4966988;28;1847;-67
2023/04/05 03:51:32;;;;;;;;;;;;;;;20.33;41.17;101877.75;4969052;28;2643;-68
2023/04/05 03:53:59;;;;;;;;;;;;;;;20.33;41.17;101877.75;4968459;28;2560;-67
2023/04/05 03:56:29;;;;;;;;;;;;;;;20.33;41.37;101883.53;4952274;28;1808;-67
2023/04/05 03:58:59;;;;;;;;;;;;;;;20.32;41.20;101879.16;4966824;28;1915;-67
2023/04/05 04:01:27;;;;;;;;;;;;;;;20.32;41.35;101875.50;4952886;28;1756;-68
2023/04/05 04:03:54;;;;;;;;;;;;;;;20.33;41.22;101871.28;4967202;28;2410;-67
2023/04/05 04:06:25;;;;;;;;;;;;;;;20.33;41.22;101877.03;4967752;28;2396;-68
2023/04/05 04:08:52;;;;;;;;;;;;;;;20.32;41.23;101882.03;4948495;28;2619;-67
2023/04/05 04:11:18;;;;;;;;;;;;;;;20.34;41.22;101887.13;4952916;28;2241;-67
2023/04/05 04:13:46;;;;;;;;;;;;;;;20.34;41.09;101882.16;4952671;28;2723;-68
2023/04/05 04:16:31;;;;;;;;;;;;;;;20.35;41.18;101886.53;4947722;28;2701;-67
2023/04/05 04:19:26;;;;;;;;;;;;;;;20.36;41.23;101890.16;4955720;28;1740;-67
2023/04/05 04:22:03;;;;;;;;;;;;;;;20.38;41.32;101893.16;4944068;28;1913;-67
2023/04/05 04:25:08;;;;;;;;;;;;;;;20.37;41.12;101901.03;4966996;28;1815;-67
2023/04/05 04:28:05;;;;;;;;;;;;;;;20.38;41.29;101890.28;4942081;28;2502;-67
2023/04/05 04:30:57;;;;;;;;;;;;;;;20.38;41.12;101890.28;4950719;28;2682;-67
2023/04/05 04:33:48;;;;;;;;;;;;;;;20.38;41.08;101896.03;4947766;28;2569;-67
2023/04/05 04:36:33;;;;;;;;;;;;;;;20.37;41.33;101901.03;4949872;28;1879;-67
2023/04/05 04:39:43;;;;;;;;;;;;;;;20.36;41.27;101893.03;4953525;28;2705;-67
2023/04/05 04:42:25;;;;;;;;;;;;;;;20.40;41.24;101888.28;4963529;28;2502;-69
2023/04/05 04:45:05;;;;;;;;;;;;;;;20.40;41.31;101893.28;4968458;28;1716;-69
2023/04/05 04:48:03;;;;;;;;;;;;;;;20.39;41.32;101891.78;4943238;28;2723;-69
2023/04/05 04:50:38;;;;;;;;;;;;;;;20.38;41.26;101893.16;4968122;28;2797;-68
2023/04/05 04:53:04;;;;;;;;;;;;;;;20.37;41.41;101895.28;4966575;28;2001;-67
2023/04/05 04:55:32;;;;;;;;;;;;;;;19.66;38.70;101897.19;4966915;28;1821;-66
2023/04/05 04:57:58;;;;;;;;;;;;;;;17.51;32.93;101888.69;4967858;28;2357;-69
2023/04/05 05:00:25;;;;;;;;;;;;;;;18.39;35.28;101895.06;4968071;28;2358;-69
2023/04/05 05:02:52;;;;;;;;;;;;;;;19.29;36.59;101899.75;4943446;28;2795;-69
2023/04/05 05:05:21;;;;;;;;;;;;;;;19.71;37.52;101892.50;4967900;28;2666;-69
2023/04/05 05:07:48;;;;;;;;;;;;;;;19.90;38.21;101882.94;4968038;28;1939;-69
2023/04/05 05:10:15;;;;;;;;;;;;;;;19.99;38.53;101891.44;4967797;28;2674;-70
2023/04/05 05:12:41;;;;;;;;;;;;;;;20.06;38.81;101893.34;4963030;28;1960;-69
2023/04/05 05:15:10;;;;;;;;;;;;;;;20.09;38.80;101886.38;4945831;28;1685;-67
2023/04/05 05:17:38;;;;;;;;;;;;;;;20.16;39.06;101889.59;4964942;28;2645;-69
2023/04/05 05:20:08;;;;;;;;;;;;;;;20.20;39.00;101887.00;4968111;28;2837;-69
2023/04/05 05:22:35;;;;;;;;;;;;;;;20.21;39.26;101888.50;4967062;28;1746;-69
2023/04/05 05:25:02;;;;;;;;;;;;;;;20.22;39.44;101884.25;4967284;28;2212;-69
2023/04/05 05:27:28;;;;;;;;;;;;;;;20.24;39.52;101893.00;4963712;28;2646;-69
2023/04/05 05:29:55;;;;;;;;;;;;;;;20.26;39.56;101896.03;4966845;28;2690;-69
2023/04/05 05:32:22;;;;;;;;;;;;;;;20.27;39.62;101900.38;4967574;28;1966;-69
2023/04/05 05:34:48;;;;;;;;;;;;;;;20.27;39.76;101891.75;4966140;28;2540;-69
2023/04/05 05:37:15;;;;;;;;;;;;;;;20.29;39.88;101886.13;4966403;28;2472;-68
2023/04/05 05:39:45;;;;;;;;;;;;;;;20.29;39.96;101894.75;4965724;28;1935;-69
2023/04/05 05:42:11;;;;;;;;;;;;;;;20.28;40.15;101881.78;4967261;28;2635;-69
2023/04/05 05:44:37;;;;;;;;;;;;;;;20.28;40.10;101888.25;4967132;28;2718;-69
2023/04/05 05:47:04;;;;;;;;;;;;;;;20.27;40.20;101886.78;4966378;28;2172;-69
2023/04/05 05:49:30;;;;;;;;;;;;;;;20.29;40.22;101891.88;4966892;28;2064;-69
2023/04/05 05:51:56;;;;;;;;;;;;;;;20.29;40.16;101883.25;4966858;28;2615;-69
2023/04/05 05:54:23;;;;;;;;;;;;;;;20.27;40.30;101891.75;4968963;28;2718;-69
2023/04/05 05:56:50;;;;;;;;;;;;;;;20.27;40.34;101880.25;4971263;28;1856;-69
2023/04/05 05:59:16;;;;;;;;;;;;;;;20.28;40.40;101881.78;4971338;28;2200;-69
2023/04/05 06:01:45;;;;;;;;;;;;;;;20.28;40.49;101881.78;4971118;28;2351;-69
2023/04/05 06:04:12;;;;;;;;;;;;;;;20.28;40.56;101871.00;4971290;28;2374;-69
2023/04/05 06:06:39;;;;;;;;;;;;;;;20.31;40.44;101880.50;4970925;28;2536;-68
2023/04/05 06:09:05;;;;;;;;;;;;;;;20.32;40.51;101870.53;4971329;28;2965;-69
2023/04/05 06:11:32;;;;;;;;;;;;;;;20.33;40.47;101879.91;4971052;28;2190;-68
2023/04/05 06:13:59;;;;;;;;;;;;;;;20.33;40.47;101880.63;4970985;28;2597;-68
2023/04/05 06:16:26;;;;;;;;;;;;;;;20.35;40.47;101880.03;4969659;28;2775;-68
2023/04/05 06:18:54;;;;;;;;;;;;;;;20.32;40.57;101876.28;4971209;28;1849;-68
2023/04/05 06:21:20;;;;;;;;;;;;;;;20.35;40.59;101886.53;4970850;28;2611;-68
2023/04/05 06:23:47;;;;;;;;;;;;;;;20.35;40.58;101888.66;4971620;28;1714;-69
2023/04/05 06:26:21;;;;;;;;;;;;;;;20.34;40.78;101884.25;4968662;28;2905;-69
2023/04/05 06:28:48;;;;;;;;;;;;;;;20.34;40.73;101873.53;4968823;28;1846;-69
2023/04/05 06:31:15;;;;;;;;;;;;;;;20.33;40.72;101883.53;4971287;28;1982;-69
2023/04/05 06:33:42;;;;;;;;;;;;;;;20.34;40.77;101882.16;4970259;28;1896;-69
2023/04/05 06:36:08;;;;;;;;;;;;;;;20.36;40.86;101870.00;4966574;28;2592;-69
2023/04/05 06:38:35;;;;;;;;;;;;;;;20.38;40.75;101868.00;4971462;28;2568;-69
2023/04/05 06:41:01;;;;;;;;;;;;;;;20.38;40.82;101868.00;4971389;28;2420;-69
2023/04/05 06:43:28;;;;;;;;;;;;;;;20.43;40.59;101872.66;4970939;28;1614;-69
2023/04/05 06:45:54;;;;;;;;;;;;;;;20.43;40.68;101869.78;4970075;28;1645;-68
2023/04/05 06:48:21;;;;;;;;;;;;;;;20.44;40.60;101865.53;4970327;28;2604;-69
2023/04/05 06:50:55;;;;;;;;;;;;;;;20.43;40.83;101858.28;4971789;28;1765;-69
2023/04/05 06:53:21;;;;;;;;;;;;;;;20.46;40.98;101856.28;4969801;28;2552;-69
2023/04/05 06:55:49;;;;;;;;;;;;;;;20.47;40.83;101858.50;4971517;28;1940;-69
2023/04/05 06:58:16;;;;;;;;;;;;;;;20.46;40.78;101857.00;4971088;28;2556;-69
2023/04/05 07:00:42;;;;;;;;;;;;;;;20.46;40.94;101862.78;4970177;28;1906;-69
2023/04/05 07:03:08;;;;;;;;;;;;;;;20.44;40.90;101864.78;4970629;28;1733;-69
2023/04/05 07:05:35;;;;;;;;;;;;;;;20.47;40.82;101875.78;4969955;28;1725;-69
2023/04/05 07:08:02;;;;;;;;;;;;;;;20.47;40.76;101881.53;4970556;28;2698;-69
2023/04/05 07:10:28;;;;;;;;;;;;;;;20.46;40.83;101890.78;4970326;28;1614;-69
2023/04/05 07:12:55;;;;;;;;;;;;;;;20.47;40.85;101878.66;4970122;28;2321;-69
2023/04/05 07:15:21;;;;;;;;;;;;;;;20.48;40.81;101888.06;4970927;28;2034;-69
2023/04/05 07:17:48;;;;;;;;;;;;;;;20.46;40.91;101880.03;4970198;28;2623;-68
2023/04/05 07:20:15;;;;;;;;;;;;;;;20.48;40.92;101888.06;4969630;28;1898;-69
2023/04/05 07:22:41;;;;;;;;;;;;;;;20.50;40.88;101883.16;4969266;28;1668;-69
2023/04/05 07:25:08;;;;;;;;;;;;;;;20.51;40.93;101887.53;4970143;28;1895;-69
2023/04/05 07:27:35;;;;;;;;;;;;;;;20.53;40.99;101877.53;4969602;28;2651;-68
2023/04/05 07:30:01;;;;;;;;;;;;;;;20.53;40.88;101874.66;4970450;28;1658;-68
2023/04/05 07:32:27;;;;;;;;;;;;;;;20.51;41.03;101875.28;4969987;28;1963;-69
2023/04/05 07:34:55;;;;;;;;;;;;;;;20.49;40.98;101881.66;4968350;28;2909;-68
2023/04/05 07:37:22;;;;;;;;;;;;;;;20.50;40.97;101868.78;4969066;28;2492;-69
2023/04/05 07:39:48;;;;;;;;;;;;;;;20.52;40.77;101865.25;4969645;28;2687;-69
2023/04/05 07:42:16;;;;;;;;;;;;;;;20.51;40.94;101858.75;4968453;28;2786;-68
2023/04/05 07:44:42;;;;;;;;;;;;;;;20.53;41.04;101863.91;4969837;28;1817;-69
2023/04/05 07:47:09;;;;;;;;;;;;;;;20.54;40.97;101862.50;4969034;28;2361;-69
2023/04/05 07:49:36;;;;;;;;;;;;;;;20.54;40.94;101853.88;4966731;28;2722;-68
2023/04/05 07:52:03;;;;;;;;;;;;;;;20.54;41.14;101856.00;4969106;28;1930;-68
2023/04/05 07:54:32;;;;;;;;;;;;;;;20.57;41.00;101860.53;4969256;28;1677;-69
2023/04/05 07:56:59;;;;;;;;;;;;;;;20.57;41.08;101866.28;4968141;28;2631;-69
2023/04/05 07:59:26;;;;;;;;;;;;;;;20.57;41.22;101860.53;4968764;28;2687;-70
2023/04/05 08:01:52;;;;;;;;;;;;;;;20.60;41.09;101862.19;4968903;28;1911;-68
2023/04/05 08:04:27;;;;;;;;;;;;;;;20.62;41.15;101868.06;4970407;28;1753;-69
2023/04/05 08:06:53;;;;;;;;;;;;;;;20.62;41.11;101871.69;4967569;28;2789;-68
2023/04/05 08:09:20;;;;;;;;;;;;;;;20.63;41.08;101858.78;4965247;28;1693;-69
2023/04/05 08:11:46;;;;;;;;;;;;;;;20.62;41.16;101865.19;4965947;28;2524;-68
2023/04/05 08:14:12;;;;;;;;;;;;;;;20.62;41.24;101865.94;4967016;28;2556;-69
2023/04/05 08:16:39;;;;;;;;;;;;;;;20.66;41.12;101862.53;4965633;28;2843;-68
2023/04/05 08:19:05;;;;;;;;;;;;;;;20.64;41.09;101856.69;4965335;28;2571;-69
2023/04/05 08:21:32;;;;;;;;;;;;;;;20.62;41.40;101857.28;4965840;28;2556;-69
2023/04/05 08:23:59;;;;;;;;;;;;;;;20.65;41.40;101855.28;4965690;28;2667;-69
2023/04/05 08:26:25;;;;;;;;;;;;;;;20.67;41.30;101864.03;4966507;28;2448;-69
2023/04/05 08:28:52;;;;;;;;;;;;;;;20.64;41.22;101853.78;4966004;28;2315;-69
2023/04/05 08:31:19;;;;;;;;;;;;;;;20.66;41.29;101853.91;4965413;28;2642;-69
2023/04/05 08:33:45;;;;;;;;;;;;;;;20.66;41.31;101856.78;4965184;28;2630;-68
2023/04/05 08:36:12;;;;;;;;;;;;;;;20.66;41.18;101853.91;4966121;28;2592;-69
2023/04/05 08:38:38;;;;;;;;;;;;;;;20.67;41.38;101852.53;4963740;28;2361;-69
2023/04/05 08:41:13;;;;;;;;;;;;;;;20.69;41.32;101849.78;4965173;28;2658;-68
2023/04/05 08:44:01;;;;;;;;;;;;;;;20.70;41.41;101857.78;4966643;28;2704;-68
2023/04/05 08:46:30;;;;;;;;;;;;;;;20.71;41.48;101847.03;4966043;28;1684;-69
2023/04/05 08:48:57;;;;;;;;;;;;;;;20.71;41.37;101852.78;4969052;28;2737;-68
2023/04/05 08:51:24;;;;;;;;;;;;;;;20.71;41.34;101852.78;4966873;28;1808;-68
2023/04/05 08:53:51;;;;;;;;;;;;;;;20.74;41.22;101850.78;4968900;28;1914;-68
2023/04/05 08:56:23;;;;;;;;;;;;;;;20.73;41.33;101844.28;4968591;28;1836;-68
2023/04/05 08:58:57;;;;;;;;;;;;;;;20.72;41.47;101854.28;4968086;28;1801;-68
2023/04/05 09:01:23;;;;;;;;;;;;;;;20.70;41.39;101857.03;4954841;28;2643;-68
2023/04/05 09:03:50;;;;;;;;;;;;;;;20.73;41.30;101838.53;4967201;28;1773;-69
2023/04/05 09:06:16;;;;;;;;;;;;;;;20.74;41.29;101839.28;4951940;28;1734;-68
2023/04/05 09:08:42;;;;;;;;;;;;;;;20.77;41.36;101843.75;4968079;28;1880;-68
2023/04/05 09:11:10;;;;;;;;;;;;;;;20.77;41.41;101844.50;4968041;28;1918;-68
2023/04/05 09:13:36;;;;;;;;;;;;;;;20.76;41.34;101837.25;4968247;28;1915;-68
2023/04/05 09:16:03;;;;;;;;;;;;;;;20.75;41.46;101835.75;4967938;28;1710;-67
2023/04/05 09:18:30;;;;;;;;;;;;;;;20.77;41.51;101833.00;4969236;28;1903;-68
2023/04/05 09:21:01;;;;;;;;;;;;;;;20.79;41.32;101833.13;4968277;28;1646;-68
2023/04/05 09:23:28;;;;;;;;;;;;;;;20.76;41.50;101837.25;4967828;28;1820;-68
2023/04/05 09:25:54;;;;;;;;;;;;;;;20.78;41.36;101837.38;4967679;28;1880;-68
2023/04/05 09:28:21;;;;;;;;;;;;;;;20.79;41.34;101830.22;4968251;28;1872;-67
2023/04/05 09:30:47;;;;;;;;;;;;;;;20.78;41.38;101828.75;4971897;28;1629;-68
2023/04/05 09:33:14;;;;;;;;;;;;;;;20.79;41.47;101833.13;4972799;28;1978;-69
2023/04/05 09:35:41;;;;;;;;;;;;;;;20.78;41.51;101823.00;4970519;28;1765;-68
2023/04/05 09:38:07;;;;;;;;;;;;;;;20.78;41.34;101828.75;4972259;28;1642;-68
2023/04/05 09:40:42;;;;;;;;;;;;;;;20.80;41.52;101840.38;4953237;28;1723;-68
2023/04/05 09:43:12;;;;;;;;;;;;;;;20.80;41.44;101822.34;4971083;28;1647;-68
2023/04/05 09:45:40;;;;;;;;;;;;;;;20.81;41.39;101830.34;4954921;28;2453;-68
2023/04/05 09:48:06;;;;;;;;;;;;;;;20.82;41.40;101829.00;4971770;28;2655;-68
2023/04/05 09:50:33;;;;;;;;;;;;;;;20.84;41.45;101825.47;4970341;28;2643;-68
2023/04/05 09:53:06;;;;;;;;;;;;;;;20.85;41.34;101816.22;4949091;28;2701;-68
2023/04/05 09:55:32;;;;;;;;;;;;;;;20.87;41.30;101810.56;4970720;28;2666;-68
2023/04/05 09:57:59;;;;;;;;;;;;;;;20.87;41.32;101816.34;4972576;28;1925;-68
2023/04/05 10:00:25;;;;;;;;;;;;;;;20.90;41.55;101812.19;4968917;28;2537;-68
2023/04/05 10:02:54;;;;;;;;;;;;;;;20.88;41.57;101809.19;4970158;28;2656;-68
2023/04/05 10:05:27;;;;;;;;;;;;;;;20.86;41.43;101806.19;4969692;28;2400;-68
2023/04/05 10:07:54;;;;;;;;;;;;;;;20.88;41.34;101809.19;4971402;28;2541;-68
2023/04/05 10:10:21;;;;;;;;;;;;;;;20.88;41.57;101812.06;4971264;28;1778;-68
2023/04/05 10:12:47;;;;;;;;;;;;;;;20.86;41.54;101811.94;4971777;28;2607;-68
2023/04/05 10:15:14;;;;;;;;;;;;;;;20.86;41.67;101811.94;4969017;28;2621;-68
2023/04/05 10:17:48;;;;;;;;;;;;;;;20.86;41.58;101806.19;4971336;28;2560;-68
2023/04/05 10:20:15;;;;;;;;;;;;;;;20.86;41.56;101811.94;4969408;28;2612;-68
2023/04/05 10:22:44;;;;;;;;;;;;;;;20.87;41.59;101804.06;4971907;28;1596;-68
2023/04/05 10:25:19;;;;;;;;;;;;;;;20.87;41.59;101801.19;4969041;28;2624;-68
2023/04/05 10:27:52;;;;;;;;;;;;;;;20.88;41.52;101803.44;4971713;28;2640;-68
2023/04/05 10:30:18;;;;;;;;;;;;;;;20.89;41.69;101801.28;4971280;28;2603;-68
2023/04/05 10:33:03;;;;;;;;;;;;;;;20.87;41.70;101799.06;4972340;28;1911;-68
2023/04/05 10:35:32;;;;;;;;;;;;;;;20.88;41.67;101796.94;4970628;28;2521;-68
2023/04/05 10:38:10;;;;;;;;;;;;;;;20.89;41.68;101798.41;4971197;28;2654;-68
2023/04/05 10:40:36;;;;;;;;;;;;;;;20.91;41.48;101801.41;4967081;28;2694;-68
2023/04/05 10:43:03;;;;;;;;;;;;;;;20.91;41.65;101807.19;4970266;28;2607;-68
2023/04/05 10:45:29;;;;;;;;;;;;;;;20.90;41.53;101803.56;4969547;28;1588;-68
2023/04/05 10:47:58;;;;;;;;;;;;;;;20.91;41.69;101798.53;4957200;28;1644;-68
2023/04/05 10:50:25;;;;;;;;;;;;;;;20.89;41.65;101792.66;4966924;28;2364;-68
2023/04/05 10:52:52;;;;;;;;;;;;;;;20.90;41.63;101792.03;4968771;28;2777;-68
2023/04/05 10:55:19;;;;;;;;;;;;;;;20.89;41.64;101799.19;4968013;28;2667;-68
2023/04/05 10:57:45;;;;;;;;;;;;;;;20.89;41.71;101795.53;4969089;28;2682;-68
2023/04/05 11:00:12;;;;;;;;;;;;;;;20.90;41.64;101788.41;4968940;28;2678;-69
2023/04/05 11:02:38;;;;;;;;;;;;;;;20.88;41.75;101794.78;4968265;28;2588;-68
2023/04/05 11:05:05;;;;;;;;;;;;;;;20.88;41.76;101791.16;4969727;28;2806;-68
2023/04/05 11:07:41;;;;;;;;;;;;;;;20.86;41.61;101800.44;4969517;28;2639;-68
2023/04/05 11:10:07;;;;;;;;;;;;;;;20.86;41.64;101793.94;4969713;28;2453;-68
2023/04/05 11:12:46;;;;;;;;;;;;;;;20.85;41.67;101784.53;4967393;28;2745;-68
2023/04/05 11:15:26;;;;;;;;;;;;;;;20.88;41.74;101791.16;4969771;28;2582;-68
2023/04/05 11:18:11;;;;;;;;;;;;;;;20.87;41.73;101784.66;4968332;28;2715;-68
2023/04/05 11:20:41;;;;;;;;;;;;;;;20.90;41.70;101791.28;4969936;28;2595;-68
2023/04/05 11:23:08;;;;;;;;;;;;;;;20.90;41.64;101783.41;4969190;28;2638;-68
2023/04/05 11:25:38;;;;;;;;;;;;;;;20.90;41.61;101786.28;4968850;28;2609;-68
2023/04/05 11:28:05;;;;;;;;;;;;;;;20.91;41.65;101784.91;4969034;28;2643;-68
2023/04/05 11:30:47;;;;;;;;;;;;;;;20.91;41.77;101779.16;4968186;28;2827;-68
2023/04/05 11:33:32;;;;;;;;;;;;;;;20.91;41.76;101784.13;4970581;28;1919;-67
2023/04/05 11:36:01;;;;;;;;;;;;;;;20.89;41.73;101778.25;4967237;28;2796;-68
2023/04/05 11:38:28;;;;;;;;;;;;;;;20.85;41.85;101778.78;4968638;28;2622;-68
2023/04/05 11:41:16;;;;;;;;;;;;;;;20.84;41.70;101780.16;4969073;28;2615;-68
2023/04/05 11:43:43;;;;;;;;;;;;;;;20.82;42.04;101780.06;4968430;28;2382;-68
2023/04/05 11:46:09;;;;;;;;;;;;;;;20.81;41.79;101798.69;4969578;28;2830;-68
2023/04/05 11:48:36;;;;;;;;;;;;;;;20.81;41.72;101792.19;4968821;28;2516;-68
2023/04/05 11:51:09;;;;;;;;;;;;;;;20.78;41.71;101788.44;4970456;28;1684;-68
2023/04/05 11:53:36;;;;;;;;;;;;;;;20.77;41.78;101792.69;4967650;28;2617;-68
2023/04/05 11:56:05;;;;;;;;;;;;;;;20.80;41.86;101785.69;4966014;28;2725;-68
2023/04/05 11:58:32;;;;;;;;;;;;;;;20.81;42.06;101781.41;4968356;28;2984;-68
2023/04/05 12:01:02;;;;;;;;;;;;;;;20.81;41.86;101783.56;4968776;28;2402;-68
2023/04/05 12:03:28;;;;;;;;;;;;;;;20.80;42.02;101774.19;4968384;28;2579;-68
2023/04/05 12:05:55;;;;;;;;;;;;;;;20.82;42.27;101774.28;4968947;28;2631;-68
2023/04/05 12:08:22;;;;;;;;;;;;;;;20.83;42.03;101775.03;4966837;28;2587;-68
2023/04/05 12:10:57;;;;;;;;;;;;;;;20.83;42.24;101763.53;4969074;28;2434;-68
2023/04/05 12:13:28;;;;;;;;;;;;;;;20.80;42.24;101762.66;4968640;28;1918;-68
2023/04/05 12:15:56;;;;;;;;;;;;;;;20.82;42.27;101770.66;4966810;28;2660;-68
2023/04/05 12:18:23;;;;;;;;;;;;;;;20.81;42.47;101763.41;4965448;28;2422;-68
2023/04/05 12:20:49;;;;;;;;;;;;;;;20.43;39.67;101768.31;4967781;28;2330;-63
2023/04/05 12:23:16;;;;;;;;;;;;;;;18.96;34.49;101762.63;4948490;28;2669;-70
2023/04/05 12:25:48;;;;;;;;;;;;;;;19.21;35.13;101762.88;4964249;28;2976;-68
2023/04/05 12:28:15;;;;;;;;;;;;;;;19.67;35.06;101758.63;4947782;28;2718;-67
2023/04/05 12:30:56;;;;;;;;;;;;;;;20.08;36.19;101743.22;4967828;28;2682;-67
2023/04/05 12:33:26;;;;;;;;;;;;;;;20.30;38.26;101749.59;4968346;28;2540;-67
2023/04/05 12:35:52;;;;;;;;;;;;;;;20.44;38.28;101743.94;4966949;28;2643;-67
2023/04/05 12:38:19;;;;;;;;;;;;;;;20.56;38.18;101743.91;4950483;28;1786;-67
2023/04/05 12:40:45;;;;;;;;;;;;;;;20.64;38.33;101732.94;4969155;28;2596;-67
2023/04/05 12:43:18;;;;;;;;;;;;;;;20.70;38.29;101739.03;4968343;28;2611;-68
2023/04/05 12:45:45;;;;;;;;;;;;;;;20.73;38.37;101740.66;4969062;28;1588;-68
2023/04/05 12:48:12;;;;;;;;;;;;;;;20.76;38.79;101736.50;4968292;28;2663;-68
2023/04/05 12:50:45;;;;;;;;;;;;;;;20.82;38.83;101733.22;4967596;28;1705;-68
2023/04/05 12:53:16;;;;;;;;;;;;;;;20.16;36.56;101732.22;4968154;28;2623;-67
2023/04/05 12:55:44;;;;;;;;;;;;;;;20.21;37.85;101733.22;4966259;28;2709;-66
2023/04/05 12:58:12;;;;;;;;;;;;;;;20.35;37.75;101736.94;4966219;28;1599;-65
2023/04/05 13:00:38;;;;;;;;;;;;;;;20.34;37.89;101729.69;4967250;28;2542;-66
2023/04/05 13:03:04;;;;;;;;;;;;;;;20.31;37.04;101730.94;4966306;28;2651;-66